Time,TemperatureF,DewpointF,PressureIn,WindDirection,WindDirectionDegrees,WindSpeedMPH,WindSpeedGustMPH,Humidity,HourlyPrecipIn,Conditions,Clouds,dailyrainin,SoftwareType,DateUTC
2013-08-21 00:10:00,69.0,65.0,30.04,South,175,2.0,4.0,86,0.00,,,0.00,weatherlink.com 1.10,2013-08-21 05:10:00,
2013-08-21 00:25:00,68.8,65.0,30.05,South,181,2.0,3.0,87,0.00,,,0.00,weatherlink.com 1.10,2013-08-21 05:25:00,
2013-08-21 00:40:00,68.8,65.0,30.05,SSW,192,2.0,4.0,87,0.00,,,0.00,weatherlink.com 1.10,2013-08-21 05:40:00,
2013-08-21 00:55:00,68.7,65.0,30.05,South,169,1.0,3.0,87,0.00,,,0.00,weatherlink.com 1.10,2013-08-21 05:55:00,
2013-08-21 01:10:00,68.4,64.0,30.05,South,169,2.0,4.0,87,0.00,,,0.00,weatherlink.com 1.10,2013-08-21 06:10:00,
2013-08-21 01:25:00,68.4,64.0,30.05,SSE,157,4.0,5.0,87,0.00,,,0.00,weatherlink.com 1.10,2013-08-21 06:25:00,
2013-08-21 01:40:00,68.5,65.0,30.04,South,178,3.0,4.0,87,0.00,,,0.00,weatherlink.com 1.10,2013-08-21 06:40:00,
2013-08-21 01:55:00,68.1,65.0,30.04,South,171,2.0,4.0,88,0.00,,,0.00,weatherlink.com 1.10,2013-08-21 06:55:00,
2013-08-21 02:10:00,67.9,64.0,30.04,SSE,168,3.0,4.0,88,0.00,,,0.00,weatherlink.com 1.10,2013-08-21 07:10:00,
2013-08-21 02:25:00,67.6,64.0,30.04,South,190,3.0,4.0,89,0.00,,,0.00,weatherlink.com 1.10,2013-08-21 07:25:00,
2013-08-21 02:40:00,67.5,65.0,30.04,SSW,194,2.0,3.0,90,0.00,,,0.00,weatherlink.com 1.10,2013-08-21 07:40:00,
2013-08-21 02:55:00,68.1,65.0,30.04,SW,215,1.0,5.0,89,0.00,,,0.00,weatherlink.com 1.10,2013-08-21 07:55:00,
2013-08-21 03:10:00,68.6,65.0,30.04,SSW,196,2.0,4.0,87,0.00,,,0.00,weatherlink.com 1.10,2013-08-21 08:10:00,
2013-08-21 03:25:00,68.5,65.0,30.04,SSW,200,1.0,3.0,87,0.00,,,0.00,weatherlink.com 1.10,2013-08-21 08:25:00,
2013-08-21 03:40:00,68.2,65.0,30.04,SSW,205,1.0,3.0,88,0.00,,,0.00,weatherlink.com 1.10,2013-08-21 08:40:00,
2013-08-21 03:55:00,67.8,65.0,30.04,SSW,202,1.0,3.0,89,0.00,,,0.00,weatherlink.com 1.10,2013-08-21 08:55:00,
2013-08-21 04:10:00,67.0,64.0,30.04,South,174,1.0,3.0,90,0.00,,,0.00,weatherlink.com 1.10,2013-08-21 09:10:00,
2013-08-21 04:25:00,66.6,64.0,30.04,South,174,0.0,1.0,91,0.00,,,0.00,weatherlink.com 1.10,2013-08-21 09:25:00,
2013-08-21 04:40:00,66.1,64.0,30.05,South,174,0.0,1.0,92,0.00,,,0.00,weatherlink.com 1.10,2013-08-21 09:40:00,
2013-08-21 04:55:00,65.8,64.0,30.05,South,173,2.0,3.0,93,0.00,,,0.00,weatherlink.com 1.10,2013-08-21 09:55:00,
2013-08-21 05:10:00,65.8,64.0,30.05,South,175,2.0,3.0,93,0.00,,,0.00,weatherlink.com 1.10,2013-08-21 10:10:00,
2013-08-21 05:25:00,65.7,64.0,30.05,South,184,2.0,2.0,93,0.00,,,0.00,weatherlink.com 1.10,2013-08-21 10:25:00,
2013-08-21 05:40:00,65.4,63.0,30.05,South,176,1.0,3.0,93,0.00,,,0.00,weatherlink.com 1.10,2013-08-21 10:40:00,
2013-08-21 05:55:00,65.2,63.0,30.05,South,181,2.0,3.0,93,0.00,,,0.00,weatherlink.com 1.10,2013-08-21 10:55:00,
2013-08-21 06:10:00,65.2,64.0,30.05,SSE,165,3.0,3.0,94,0.00,,,0.00,weatherlink.com 1.10,2013-08-21 11:10:00,
2013-08-21 06:25:00,65.4,64.0,30.05,South,176,2.0,3.0,94,0.00,,,0.00,weatherlink.com 1.10,2013-08-21 11:25:00,
2013-08-21 06:40:00,65.7,64.0,30.06,South,175,3.0,3.0,93,0.00,,,0.00,weatherlink.com 1.10,2013-08-21 11:40:00,
2013-08-21 06:55:00,66.0,64.0,30.06,SSE,164,2.0,3.0,93,0.00,,,0.00,weatherlink.com 1.10,2013-08-21 11:55:00,
2013-08-21 07:10:00,66.6,64.0,30.06,South,183,2.0,5.0,92,0.00,,,0.00,weatherlink.com 1.10,2013-08-21 12:10:00,
2013-08-21 07:25:00,67.1,65.0,30.06,South,189,3.0,4.0,92,0.00,,,0.00,weatherlink.com 1.10,2013-08-21 12:25:00,
2013-08-21 07:40:00,67.8,65.0,30.07,South,169,3.0,4.0,91,0.00,,,0.00,weatherlink.com 1.10,2013-08-21 12:40:00,
2013-08-21 07:55:00,68.4,65.0,30.06,South,185,3.0,5.0,89,0.00,,,0.00,weatherlink.com 1.10,2013-08-21 12:55:00,
2013-08-21 08:10:00,69.6,66.0,30.07,SSW,202,2.0,7.0,87,0.00,,,0.00,weatherlink.com 1.10,2013-08-21 13:10:00,
2013-08-21 08:25:00,70.4,66.0,30.06,SSW,196,2.0,7.0,85,0.00,,,0.00,weatherlink.com 1.10,2013-08-21 13:25:00,
2013-08-21 08:40:00,70.9,66.0,30.06,SW,217,2.0,7.0,85,0.00,,,0.00,weatherlink.com 1.10,2013-08-21 13:40:00,
2013-08-21 08:55:00,71.9,67.0,30.06,SSW,194,3.0,11.0,83,0.00,,,0.00,weatherlink.com 1.10,2013-08-21 13:55:00,
2013-08-21 09:10:00,73.2,67.0,30.06,SSW,210,3.0,9.0,82,0.00,,,0.00,weatherlink.com 1.10,2013-08-21 14:10:00,
2013-08-21 09:25:00,74.4,68.0,30.06,SSW,211,6.0,8.0,79,0.00,,,0.00,weatherlink.com 1.10,2013-08-21 14:25:00,
2013-08-21 09:40:00,75.8,69.0,30.06,SSW,211,3.0,7.0,78,0.00,,,0.00,weatherlink.com 1.10,2013-08-21 14:40:00,
2013-08-21 09:55:00,76.8,69.0,30.06,South,186,3.0,8.0,77,0.00,,,0.00,weatherlink.com 1.10,2013-08-21 14:55:00,
2013-08-21 10:11:00,77.8,69.0,30.06,SW,220,8.0,9.0,73,0.00,,,0.00,weatherlink.com 1.10,2013-08-21 15:11:00,
2013-08-21 10:26:00,78.8,69.0,30.06,SW,217,4.0,10.0,71,0.00,,,0.00,weatherlink.com 1.10,2013-08-21 15:26:00,
2013-08-21 10:41:00,79.1,69.0,30.06,SSW,211,2.0,11.0,71,0.00,,,0.00,weatherlink.com 1.10,2013-08-21 15:41:00,
2013-08-21 10:56:00,79.5,69.0,30.06,SW,215,6.0,12.0,71,0.00,,,0.00,weatherlink.com 1.10,2013-08-21 15:56:00,
2013-08-21 11:11:00,80.2,69.0,30.06,SW,227,6.0,13.0,69,0.00,,,0.00,weatherlink.com 1.10,2013-08-21 16:11:00,
2013-08-21 11:26:00,80.8,70.0,30.05,SW,236,6.0,9.0,69,0.00,,,0.00,weatherlink.com 1.10,2013-08-21 16:26:00,
2013-08-21 11:41:00,81.1,70.0,30.05,SW,234,5.0,15.0,68,0.00,,,0.00,weatherlink.com 1.10,2013-08-21 16:41:00,
2013-08-21 11:56:00,81.4,70.0,30.05,SSW,208,7.0,13.0,68,0.00,,,0.00,weatherlink.com 1.10,2013-08-21 16:56:00,
2013-08-21 12:11:00,81.8,70.0,30.05,South,178,6.0,10.0,68,0.00,,,0.00,weatherlink.com 1.10,2013-08-21 17:11:00,
2013-08-21 12:26:00,82.6,71.0,30.04,SSW,198,5.0,11.0,67,0.00,,,0.00,weatherlink.com 1.10,2013-08-21 17:26:00,
2013-08-21 12:41:00,82.9,71.0,30.04,SW,223,7.0,12.0,67,0.00,,,0.00,weatherlink.com 1.10,2013-08-21 17:41:00,
2013-08-21 12:56:00,82.4,70.0,30.04,SSW,196,4.0,12.0,66,0.00,,,0.00,weatherlink.com 1.10,2013-08-21 17:56:00,
2013-08-21 13:11:00,82.8,70.0,30.04,South,182,7.0,13.0,65,0.00,,,0.00,weatherlink.com 1.10,2013-08-21 18:11:00,
2013-08-21 13:26:00,83.1,69.0,30.04,SSW,205,7.0,12.0,62,0.00,,,0.00,weatherlink.com 1.10,2013-08-21 18:26:00,
2013-08-21 13:41:00,84.0,69.0,30.03,South,184,7.0,13.0,60,0.00,,,0.00,weatherlink.com 1.10,2013-08-21 18:41:00,
2013-08-21 13:56:00,84.2,69.0,30.03,West,259,7.0,10.0,60,0.00,,,0.00,weatherlink.com 1.10,2013-08-21 18:56:00,
2013-08-21 14:11:00,84.4,70.0,30.02,WSW,239,5.0,15.0,62,0.00,,,0.00,weatherlink.com 1.10,2013-08-21 19:11:00,
2013-08-21 14:26:00,85.1,70.0,30.02,SSW,205,5.0,12.0,61,0.00,,,0.00,weatherlink.com 1.10,2013-08-21 19:26:00,
2013-08-21 14:41:00,85.0,70.0,30.02,SSW,205,5.0,8.0,62,0.00,,,0.00,weatherlink.com 1.10,2013-08-21 19:41:00,
2013-08-21 14:56:00,85.0,69.0,30.02,SSW,206,7.0,11.0,59,0.00,,,0.00,weatherlink.com 1.10,2013-08-21 19:56:00,
2013-08-21 15:11:00,85.1,69.0,30.01,SSW,211,4.0,9.0,59,0.00,,,0.00,weatherlink.com 1.10,2013-08-21 20:11:00,
2013-08-21 15:26:00,85.2,69.0,30.01,South,187,6.0,10.0,58,0.00,,,0.00,weatherlink.com 1.10,2013-08-21 20:26:00,
2013-08-21 15:41:00,85.5,68.0,30.01,SSW,213,3.0,14.0,56,0.00,,,0.00,weatherlink.com 1.10,2013-08-21 20:41:00,
2013-08-21 15:56:00,85.5,68.0,30.01,SSW,202,6.0,11.0,56,0.00,,,0.00,weatherlink.com 1.10,2013-08-21 20:56:00,
2013-08-21 16:11:00,85.5,69.0,30.00,SSW,213,4.0,13.0,59,0.00,,,0.00,weatherlink.com 1.10,2013-08-21 21:11:00,
2013-08-21 16:26:00,84.7,69.0,30.00,SW,221,4.0,11.0,60,0.00,,,0.00,weatherlink.com 1.10,2013-08-21 21:26:00,
2013-08-21 16:41:00,84.6,68.0,29.99,SW,215,5.0,11.0,58,0.00,,,0.00,weatherlink.com 1.10,2013-08-21 21:41:00,
2013-08-21 16:56:00,84.6,69.0,29.99,SSW,193,3.0,12.0,59,0.00,,,0.00,weatherlink.com 1.10,2013-08-21 21:56:00,
2013-08-21 17:11:00,84.2,69.0,29.98,SSW,202,5.0,12.0,60,0.00,,,0.00,weatherlink.com 1.10,2013-08-21 22:11:00,
2013-08-21 17:26:00,84.0,69.0,29.98,SW,223,9.0,13.0,61,0.00,,,0.00,weatherlink.com 1.10,2013-08-21 22:26:00,
2013-08-21 17:41:00,83.7,69.0,29.98,SSW,197,4.0,7.0,62,0.00,,,0.00,weatherlink.com 1.10,2013-08-21 22:41:00,
2013-08-21 17:56:00,83.4,69.0,29.98,South,173,5.0,13.0,63,0.00,,,0.00,weatherlink.com 1.10,2013-08-21 22:56:00,
2013-08-21 18:11:00,83.1,70.0,29.97,SW,230,9.0,12.0,64,0.00,,,0.00,weatherlink.com 1.10,2013-08-21 23:11:00,
2013-08-21 18:26:00,82.9,70.0,29.97,SSW,209,2.0,11.0,65,0.00,,,0.00,weatherlink.com 1.10,2013-08-21 23:26:00,
2013-08-21 18:41:00,82.4,70.0,29.97,SSW,200,4.0,9.0,66,0.00,,,0.00,weatherlink.com 1.10,2013-08-21 23:41:00,
2013-08-21 18:56:00,81.7,70.0,29.97,SSW,209,2.0,8.0,67,0.00,,,0.00,weatherlink.com 1.10,2013-08-21 23:56:00,
2013-08-21 19:11:00,81.1,70.0,29.98,SW,217,4.0,6.0,69,0.00,,,0.00,weatherlink.com 1.10,2013-08-22 00:11:00,
2013-08-21 19:26:00,80.2,70.0,29.98,SW,224,0.0,4.0,70,0.00,,,0.00,weatherlink.com 1.10,2013-08-22 00:26:00,
2013-08-21 19:41:00,79.1,70.0,29.98,SW,221,1.0,3.0,74,0.00,,,0.00,weatherlink.com 1.10,2013-08-22 00:41:00,
2013-08-21 19:56:00,78.2,70.0,29.98,SSW,210,2.0,3.0,76,0.00,,,0.00,weatherlink.com 1.10,2013-08-22 00:56:00,
2013-08-21 20:11:00,77.5,70.0,30.00,SSW,210,1.0,5.0,77,0.00,,,0.00,weatherlink.com 1.10,2013-08-22 01:11:00,
2013-08-21 20:26:00,77.3,70.0,30.00,SSW,213,0.0,3.0,77,0.00,,,0.00,weatherlink.com 1.10,2013-08-22 01:26:00,
2013-08-21 20:41:00,77.0,70.0,30.01,SW,218,0.0,1.0,78,0.00,,,0.00,weatherlink.com 1.10,2013-08-22 01:41:00,
2013-08-21 20:56:00,76.7,69.0,30.02,SW,218,0.0,0.0,78,0.00,,,0.00,weatherlink.com 1.10,2013-08-22 01:56:00,
2013-08-21 21:11:00,76.5,69.0,30.02,SW,218,0.0,0.0,78,0.00,,,0.00,weatherlink.com 1.10,2013-08-22 02:11:00,
2013-08-21 21:27:00,76.2,69.0,30.02,SW,218,0.0,0.0,79,0.00,,,0.00,weatherlink.com 1.10,2013-08-22 02:27:00,
2013-08-21 21:42:00,75.9,69.0,30.03,SW,218,0.0,0.0,79,0.00,,,0.00,weatherlink.com 1.10,2013-08-22 02:42:00,
2013-08-21 21:57:00,76.0,69.0,30.03,SW,218,0.0,0.0,79,0.00,,,0.00,weatherlink.com 1.10,2013-08-22 02:57:00,
2013-08-21 22:12:00,75.7,69.0,30.03,SW,218,1.0,3.0,80,0.00,,,0.00,weatherlink.com 1.10,2013-08-22 03:12:00,
2013-08-21 22:27:00,75.4,69.0,30.04,SW,218,0.0,2.0,80,0.00,,,0.00,weatherlink.com 1.10,2013-08-22 03:27:00,
2013-08-21 22:42:00,75.3,69.0,30.04,SW,218,0.0,0.0,80,0.00,,,0.00,weatherlink.com 1.10,2013-08-22 03:42:00,
2013-08-21 22:57:00,75.2,69.0,30.04,SW,218,0.0,0.0,80,0.00,,,0.00,weatherlink.com 1.10,2013-08-22 03:57:00,
2013-08-21 23:12:00,75.1,69.0,30.04,SW,218,0.0,0.0,81,0.00,,,0.00,weatherlink.com 1.10,2013-08-22 04:12:00,
2013-08-21 23:27:00,74.6,69.0,30.03,SW,218,0.0,3.0,82,0.00,,,0.00,weatherlink.com 1.10,2013-08-22 04:27:00,
2013-08-21 23:42:00,74.0,69.0,30.03,SW,218,0.0,0.0,84,0.00,,,0.00,weatherlink.com 1.10,2013-08-22 04:42:00,
2013-08-21 23:57:00,74.0,69.0,30.02,SW,214,0.0,0.0,84,0.00,,,0.00,weatherlink.com 1.10,2013-08-22 04:57:00,